Wetterdaten: aktuell Montag, 27.09.2021 23:52
Datum Zeit Temp. A. Feuchte A. Luftdruck Regen Wind Richtung Richtung Taupunkt Windchill Windben
27.09.2021 23:52 17,9 C 82 % 1019,5 hPa 0,0 l/m 1,8 km/h (1 Bft) SW 230 14,8 C 17,9 C 1,8 km/h (1 Bft)
27.09.2021 22:54 17,9 C 84 % 1019,3 hPa 0,0 l/m 0,0 km/h (0 Bft) S 180 15,2 C 17,9 C 0,0 km/h (0 Bft)
27.09.2021 21:58 17,8 C 85 % 1019,2 hPa 0,0 l/m 0,0 km/h (0 Bft) S-SW 200 15,2 C 17,8 C 0,0 km/h (0 Bft)
27.09.2021 21:03 17,8 C 85 % 1018,9 hPa 0,0 l/m 0,0 km/h (0 Bft) S 170 15,2 C 17,8 C 0,0 km/h (0 Bft)
27.09.2021 20:07 17,9 C 86 % 1018,7 hPa 0,0 l/m 0,0 km/h (0 Bft) S-SO 165 15,5 C 17,9 C 0,0 km/h (0 Bft)
27.09.2021 19:09 18,2 C 84 % 1018,6 hPa 0,0 l/m 0,0 km/h (0 Bft) S 185 15,4 C 18,2 C 0,0 km/h (0 Bft)
27.09.2021 18:11 19,4 C 80 % 1017,9 hPa 0,0 l/m 0,0 km/h (0 Bft) S 175 15,9 C 19,4 C 0,0 km/h (0 Bft)
27.09.2021 17:15 19,9 C 78 % 1017,9 hPa 0,0 l/m 1,2 km/h (1 Bft) W-NW 295 15,9 C 19,9 C 1,2 km/h (1 Bft)
27.09.2021 16:20 20,8 C 76 % 1017,6 hPa 0,0 l/m 0,0 km/h (0 Bft) W 280 16,4 C 20,8 C 0,0 km/h (0 Bft)
27.09.2021 15:21 21,0 C 75 % 1017,8 hPa 0,0 l/m 0,0 km/h (0 Bft) NO 50 16,4 C 21,0 C 0,0 km/h (0 Bft)
27.09.2021 14:26 20,4 C 76 % 1017,8 hPa 0,0 l/m 0,0 km/h (0 Bft) SO 125 16,0 C 20,4 C 0,0 km/h (0 Bft)
27.09.2021 13:31 19,8 C 79 % 1018,3 hPa 0,0 l/m 0,0 km/h (0 Bft) NO 40 16,0 C 19,8 C 0,0 km/h (0 Bft)
27.09.2021 12:35 18,6 C 86 % 1018,5 hPa 0,0 l/m 0,0 km/h (0 Bft) S-SW 200 16,2 C 18,6 C 0,0 km/h (0 Bft)
27.09.2021 11:37 17,9 C 92 % 1018,7 hPa 0,0 l/m 0,0 km/h (0 Bft) SW 225 16,6 C 17,9 C 0,0 km/h (0 Bft)
27.09.2021 10:39 17,1 C 94 % 1018,6 hPa 0,0 l/m 0,0 km/h (0 Bft) O 80 16,1 C 17,1 C 0,0 km/h (0 Bft)
27.09.2021 09:44 16,8 C 95 % 1018,5 hPa 0,0 l/m 0,0 km/h (0 Bft) SO 145 16,0 C 16,8 C 0,0 km/h (0 Bft)
27.09.2021 08:48 16,0 C 94 % 1018,9 hPa 0,0 l/m 0,0 km/h (0 Bft) O-SO 115 15,0 C 16,0 C 0,0 km/h (0 Bft)
27.09.2021 07:52 15,8 C 94 % 1019,1 hPa 0,0 l/m 0,0 km/h (0 Bft) N-NO 30 14,8 C 15,8 C 0,0 km/h (0 Bft)
27.09.2021 06:49 15,8 C 93 % 1018,8 hPa 0,6 l/m 0,0 km/h (0 Bft) N 355 14,7 C 15,8 C 0,0 km/h (0 Bft)
27.09.2021 05:53 16,2 C 90 % 1018,9 hPa 2,7 l/m 0,0 km/h (0 Bft) W 260 14,6 C 16,2 C 0,0 km/h (0 Bft)
27.09.2021 04:52 17,1 C 86 % 1018,8 hPa 0,0 l/m 0,0 km/h (0 Bft) W-SW 240 14,7 C 17,1 C 0,0 km/h (0 Bft)
27.09.2021 03:58 16,4 C 89 % 1018,5 hPa 0,0 l/m 0,0 km/h (0 Bft) W-SW 240 14,6 C 16,4 C 0,0 km/h (0 Bft)
27.09.2021 03:02 16,5 C 89 % 1018,0 hPa 0,0 l/m 0,0 km/h (0 Bft) SW 225 14,7 C 16,5 C 0,0 km/h (0 Bft)
27.09.2021 02:07 16,8 C 86 % 1017,6 hPa 0,0 l/m 0,0 km/h (0 Bft) W-SW 245 14,4 C 16,8 C 0,0 km/h (0 Bft)
27.09.2021 01:11 17,3 C 83 % 1017,7 hPa 0,0 l/m 0,0 km/h (0 Bft) NW 320 14,4 C 17,3 C 0,0 km/h (0 Bft)
27.09.2021 00:16 17,2 C 83 % 1017,6 hPa 0,0 l/m 0,0 km/h (0 Bft) W-NW 300 14,3 C 17,2 C 0,0 km/h (0 Bft)
27.09.2021 00:00 17,1 C 84 % 1017,7 hPa 0,0 l/m 0,0 km/h (0 Bft) S-SO 165 14,4 C 17,1 C 0,0 km/h (0 Bft)
_ Min-Zeit 07:34 15:47 02:27 - 00:00 - - 01:31 07:34 00:00
Minimum _ 15,6 C 73 % 1017,5 hPa - 0,0 km/h (0 Bft) - - 14,3 C 15,6 C 0,0 km/h (0 Bft)
_ Max-Zeit 15:26 09:33 23:42 05:46 03:27 - - 11:32 15:26 03:27
Maximum _ 21,1 C 95 % 1019,6 hPa 0,6 l/m 7,3 km/h
W-SW (2 Bft)
- - 16,7 C 21,1 C 7,3 km/h
W-SW (2 Bft)
Durchschnitt _ 17,8 C 86 % 1018,4 hPa #3,0 l/m 0,1 km/h (0 Bft) W-SW - 15,3 C 17,8 C 0,1 km/h (0 Bft)